createdAt,value
2018-05-09T00:01:57.375Z,11.90
2018-05-09T00:04:25.504Z,11.60
2018-05-09T00:06:53.644Z,11.70
2018-05-09T00:09:21.770Z,11.63
2018-05-09T00:11:49.907Z,12.53
2018-05-09T00:14:18.056Z,12.50
2018-05-09T00:16:46.178Z,12.30
2018-05-09T00:19:14.307Z,12.70
2018-05-09T00:21:42.455Z,11.60
2018-05-09T00:24:10.579Z,11.63
2018-05-09T00:26:38.720Z,11.87
2018-05-09T00:29:06.903Z,12.33
2018-05-09T00:31:35.038Z,12.00
2018-05-09T00:34:03.180Z,12.40
2018-05-09T00:36:31.320Z,12.80
2018-05-09T00:38:59.432Z,12.70
2018-05-09T00:41:27.573Z,12.23
2018-05-09T00:43:55.703Z,12.40
2018-05-09T00:46:23.829Z,11.90
2018-05-09T00:48:51.953Z,11.10
2018-05-09T00:51:20.092Z,12.03
2018-05-09T00:53:48.214Z,12.50
2018-05-09T00:56:16.347Z,11.87
2018-05-09T00:58:44.472Z,11.30
2018-05-09T01:01:12.596Z,13.03
2018-05-09T01:03:40.718Z,13.47
2018-05-09T01:06:08.859Z,12.93
2018-05-09T01:08:36.993Z,12.20
2018-05-09T01:11:12.425Z,12.30
2018-05-09T01:13:40.537Z,11.43
2018-05-09T01:16:08.661Z,12.80
2018-05-09T01:18:36.808Z,12.83
2018-05-09T01:21:04.946Z,12.50
2018-05-09T01:23:33.066Z,11.90
2018-05-09T01:26:01.206Z,13.23
2018-05-09T01:28:29.339Z,10.93
2018-05-09T01:30:57.478Z,11.80
2018-05-09T01:33:25.628Z,12.40
2018-05-09T01:35:53.761Z,12.53
2018-05-09T01:38:21.891Z,12.53
2018-05-09T01:40:50.187Z,11.30
2018-05-09T01:43:18.309Z,11.10
2018-05-09T01:45:47.314Z,12.13
2018-05-09T01:48:15.450Z,12.93
2018-05-09T01:50:43.579Z,14.03
2018-05-09T01:53:11.710Z,12.60
2018-05-09T01:55:39.850Z,13.10
2018-05-09T01:58:07.973Z,13.40
2018-05-09T02:00:36.093Z,14.27
2018-05-09T02:03:04.253Z,13.53
2018-05-09T02:05:32.401Z,13.33
2018-05-09T02:08:00.526Z,12.87
2018-05-09T02:10:28.646Z,13.13
2018-05-09T02:12:56.798Z,12.90
2018-05-09T02:15:24.922Z,12.85
2018-05-09T02:17:53.056Z,12.13
2018-05-09T02:20:21.188Z,13.30
2018-05-09T02:22:49.321Z,12.70
2018-05-09T02:25:17.460Z,13.33
2018-05-09T02:27:45.589Z,11.37
2018-05-09T02:30:13.726Z,13.93
2018-05-09T02:32:41.854Z,13.63
2018-05-09T02:35:09.980Z,12.80
2018-05-09T02:37:38.119Z,13.60
2018-05-09T02:40:06.255Z,13.10
2018-05-09T02:42:34.371Z,13.70
2018-05-09T02:45:02.507Z,12.33
2018-05-09T02:47:30.652Z,12.63
2018-05-09T02:49:58.830Z,14.77
2018-05-09T02:52:26.921Z,15.70
2018-05-09T02:54:55.051Z,14.90
2018-05-09T02:57:23.267Z,13.90
2018-05-09T02:59:51.381Z,13.90
2018-05-09T03:02:20.042Z,13.30
2018-05-09T03:04:48.163Z,13.37
2018-05-09T03:07:16.287Z,13.70
2018-05-09T03:09:44.433Z,13.77
2018-05-09T03:12:12.554Z,13.83
2018-05-09T03:14:40.680Z,14.20
2018-05-09T03:17:08.809Z,13.50
2018-05-09T03:19:36.930Z,13.20
2018-05-09T03:22:05.054Z,13.53
2018-05-09T03:24:33.191Z,13.23
2018-05-09T03:27:01.322Z,14.30
2018-05-09T03:29:29.499Z,15.70
2018-05-09T03:31:57.642Z,14.67
2018-05-09T03:34:25.788Z,13.70
2018-05-09T03:36:53.892Z,13.47
2018-05-09T03:39:22.034Z,14.80
2018-05-09T03:41:50.155Z,14.93
2018-05-09T03:44:18.273Z,13.90
2018-05-09T03:46:46.419Z,14.43
2018-05-09T03:49:14.991Z,13.77
2018-05-09T03:51:43.340Z,13.90
2018-05-09T03:54:11.467Z,12.90
2018-05-09T03:56:39.605Z,13.70
2018-05-09T03:59:07.743Z,14.10
2018-05-09T04:04:47.824Z,14.60
2018-05-09T04:07:27.828Z,13.45
2018-05-09T04:09:55.960Z,14.40
2018-05-09T04:12:24.081Z,18.20
2018-05-09T04:14:52.224Z,16.20
2018-05-09T04:17:20.346Z,17.83
2018-05-09T04:19:48.479Z,16.90
2018-05-09T04:22:16.611Z,16.63
2018-05-09T04:24:44.736Z,15.23
2018-05-09T04:27:12.868Z,16.50
2018-05-09T04:29:41.009Z,15.50
2018-05-09T04:32:09.159Z,15.47
2018-05-09T04:34:37.296Z,14.67
2018-05-09T04:37:05.443Z,16.40
2018-05-09T04:39:33.560Z,17.37
2018-05-09T04:42:01.796Z,16.45
2018-05-09T04:44:29.838Z,15.80
2018-05-09T04:46:57.956Z,17.20
2018-05-09T04:49:26.116Z,14.48
2018-05-09T04:51:54.251Z,14.80
2018-05-09T04:54:22.374Z,14.40
2018-05-09T04:56:50.514Z,14.33
2018-05-09T04:59:18.648Z,13.13
2018-05-09T05:01:46.766Z,13.33
2018-05-09T05:04:14.888Z,13.80
2018-05-09T05:06:43.021Z,12.43
2018-05-09T05:09:11.166Z,12.43
2018-05-09T05:11:39.298Z,12.73
2018-05-09T05:14:07.445Z,13.10
2018-05-09T05:16:35.572Z,11.70
2018-05-09T05:19:03.747Z,12.40
2018-05-09T05:21:31.884Z,11.50
2018-05-09T05:24:00.024Z,10.87
2018-05-09T05:26:28.165Z,11.10
2018-05-09T05:28:56.311Z,11.30
2018-05-09T05:31:24.455Z,10.90
2018-05-09T05:33:52.597Z,11.77
2018-05-09T05:36:20.728Z,11.57
2018-05-09T05:38:48.903Z,10.53
2018-05-09T05:41:17.026Z,10.53
2018-05-09T05:43:45.174Z,10.47
2018-05-09T05:46:13.343Z,11.17
2018-05-09T05:48:41.469Z,11.35
2018-05-09T05:51:10.225Z,11.10
2018-05-09T05:53:38.351Z,10.63
2018-05-09T05:56:06.507Z,11.20
2018-05-09T05:58:34.608Z,10.50
2018-05-09T06:01:02.806Z,9.97
2018-05-09T06:03:30.935Z,11.57
2018-05-09T06:05:59.070Z,11.53
2018-05-09T06:08:27.203Z,12.23
2018-05-09T06:10:55.346Z,12.68
2018-05-09T06:13:23.482Z,12.40
2018-05-09T06:15:51.633Z,12.60
2018-05-09T06:18:19.758Z,12.37
2018-05-09T06:20:47.895Z,10.90
2018-05-09T06:23:16.062Z,11.90
2018-05-09T06:25:44.185Z,12.87
2018-05-09T06:28:12.345Z,12.73
2018-05-09T06:30:40.477Z,13.07
2018-05-09T06:33:08.767Z,13.60
2018-05-09T06:35:36.891Z,13.20
2018-05-09T06:38:05.037Z,13.47
2018-05-09T06:40:33.173Z,13.50
2018-05-09T06:43:01.356Z,13.53
2018-05-09T06:45:29.486Z,14.53
2018-05-09T06:47:57.654Z,15.05
2018-05-09T06:50:25.838Z,16.50
2018-05-09T06:52:53.980Z,15.90
2018-05-09T06:55:22.138Z,16.77
2018-05-09T06:57:50.324Z,16.67
2018-05-09T07:00:18.996Z,20.47
2018-05-09T07:02:47.147Z,16.87
2018-05-09T07:05:15.298Z,14.95
2018-05-09T07:07:43.437Z,16.83
2018-05-09T07:10:11.569Z,15.80
2018-05-09T07:12:39.739Z,17.60
2018-05-09T07:15:07.884Z,18.57
2018-05-09T07:17:36.011Z,19.37
2018-05-09T07:20:04.147Z,19.27
2018-05-09T07:22:32.293Z,18.63
2018-05-09T07:25:00.431Z,19.70
2018-05-09T07:27:28.600Z,20.67
2018-05-09T07:29:56.730Z,19.53
2018-05-09T07:32:24.970Z,20.57
2018-05-09T07:34:53.108Z,21.73
2018-05-09T07:37:21.248Z,23.75
2018-05-09T07:39:49.417Z,24.03
2018-05-09T07:42:17.607Z,24.77
2018-05-09T07:44:45.743Z,25.33
2018-05-09T07:47:13.875Z,23.10
2018-05-09T07:49:43.306Z,23.17
2018-05-09T07:52:11.443Z,22.83
2018-05-09T07:54:39.586Z,22.30
2018-05-09T07:59:48.036Z,23.10
2018-05-09T08:02:16.176Z,23.10
2018-05-09T08:04:44.299Z,25.30
2018-05-09T08:07:12.450Z,22.97
2018-05-09T08:09:40.609Z,26.37
2018-05-09T08:12:08.746Z,24.50
2018-05-09T08:14:36.896Z,24.87
2018-05-09T08:17:05.037Z,23.70
2018-05-09T08:19:33.209Z,25.67
2018-05-09T08:22:01.327Z,22.43
2018-05-09T08:24:29.471Z,23.17
2018-05-09T08:26:57.631Z,21.80
2018-05-09T08:29:25.786Z,20.33
2018-05-09T08:31:53.892Z,17.47
2018-05-09T08:34:22.042Z,16.10
2018-05-09T08:36:50.169Z,15.57
2018-05-09T08:39:18.320Z,16.63
2018-05-09T08:41:46.445Z,16.57
2018-05-09T08:44:14.632Z,13.50
2018-05-09T08:46:43.616Z,14.93
2018-05-09T08:49:11.833Z,15.60
2018-05-09T08:51:39.894Z,14.90
2018-05-09T08:54:08.037Z,14.55
2018-05-09T08:56:36.168Z,12.87
2018-05-09T08:59:04.320Z,11.60
2018-05-09T09:01:32.475Z,10.30
2018-05-09T09:04:00.611Z,9.40
2018-05-09T09:06:28.775Z,10.30
2018-05-09T09:08:56.911Z,9.13
2018-05-09T09:11:25.028Z,9.38
2018-05-09T09:13:53.178Z,8.90
2018-05-09T09:16:21.314Z,8.60
2018-05-09T09:18:49.448Z,7.83
2018-05-09T09:21:17.582Z,7.60
2018-05-09T09:23:45.736Z,8.43
2018-05-09T09:26:13.884Z,7.83
2018-05-09T09:28:42.017Z,8.23
2018-05-09T09:31:10.667Z,8.00
2018-05-09T09:33:38.797Z,8.97
2018-05-09T09:36:06.942Z,9.43
2018-05-09T09:38:35.060Z,6.70
2018-05-09T09:41:03.182Z,7.70
2018-05-09T09:43:31.321Z,9.60
2018-05-09T09:45:59.602Z,9.97
2018-05-09T09:48:27.731Z,9.57
2018-05-09T09:50:55.865Z,9.70
2018-05-09T09:53:24.005Z,8.70
2018-05-09T09:55:52.145Z,9.10
2018-05-09T09:58:20.276Z,10.37
2018-05-09T10:00:48.401Z,8.60
2018-05-09T10:03:16.536Z,7.90
2018-05-09T10:05:44.696Z,9.00
2018-05-09T10:08:12.814Z,8.87
2018-05-09T10:10:40.951Z,7.37
2018-05-09T10:13:09.075Z,7.67
2018-05-09T10:15:37.214Z,7.70
2018-05-09T10:18:05.363Z,8.27
2018-05-09T10:20:33.475Z,8.97
2018-05-09T10:23:01.650Z,9.00
2018-05-09T10:25:29.780Z,8.17
2018-05-09T10:27:57.914Z,8.00
2018-05-09T10:30:26.063Z,8.57
2018-05-09T10:32:54.186Z,6.73
2018-05-09T10:35:22.332Z,7.80
2018-05-09T10:37:50.480Z,8.10
2018-05-09T10:40:18.613Z,8.77
2018-05-09T10:42:47.126Z,9.90
2018-05-09T10:45:15.252Z,9.30
2018-05-09T10:47:43.380Z,9.63
2018-05-09T10:50:11.509Z,9.60
2018-05-09T10:52:39.643Z,9.87
2018-05-09T10:55:07.794Z,9.50
2018-05-09T10:57:35.948Z,8.88
2018-05-09T11:00:04.089Z,8.80
2018-05-09T11:02:32.259Z,8.97
2018-05-09T11:05:00.700Z,7.93
2018-05-09T11:07:28.809Z,9.17
2018-05-09T11:09:56.951Z,8.97
2018-05-09T11:12:25.333Z,7.63
2018-05-09T11:14:53.461Z,7.97
2018-05-09T11:17:21.593Z,6.80
2018-05-09T11:19:50.465Z,7.17
2018-05-09T11:22:18.610Z,7.30
2018-05-09T11:24:47.015Z,7.73
2018-05-09T11:27:15.131Z,6.47
2018-05-09T11:29:43.274Z,5.50
2018-05-09T11:32:11.407Z,5.80
2018-05-09T11:34:39.533Z,6.53
2018-05-09T11:37:07.771Z,7.20
2018-05-09T11:39:35.902Z,6.50
2018-05-09T11:42:04.544Z,5.87
2018-05-09T11:44:32.684Z,6.97
2018-05-09T11:47:00.836Z,7.00
2018-05-09T11:49:28.941Z,5.63
2018-05-09T11:51:57.279Z,7.33
2018-05-09T11:54:25.398Z,6.87
2018-05-09T11:56:53.533Z,6.20
2018-05-09T11:59:21.686Z,6.67
2018-05-09T12:01:49.835Z,6.60
2018-05-09T12:04:17.975Z,6.85
2018-05-09T12:06:46.127Z,6.63
2018-05-09T12:09:14.977Z,7.70
2018-05-09T12:11:43.111Z,7.83
2018-05-09T12:14:11.230Z,7.70
2018-05-09T12:16:39.394Z,7.10
2018-05-09T12:19:07.967Z,7.90
2018-05-09T12:21:36.098Z,6.70
2018-05-09T12:24:04.238Z,7.23
2018-05-09T12:26:32.382Z,7.23
2018-05-09T12:29:00.562Z,6.77
2018-05-09T12:31:28.783Z,6.30
2018-05-09T12:33:56.851Z,6.70
2018-05-09T12:36:25.129Z,6.22
2018-05-09T12:38:53.256Z,6.90
2018-05-09T12:41:21.422Z,6.90
2018-05-09T12:43:49.530Z,5.50
2018-05-09T12:46:17.660Z,6.50
2018-05-09T12:48:45.851Z,5.33
2018-05-09T12:51:13.957Z,6.00
2018-05-09T12:53:42.107Z,5.70
2018-05-09T12:56:10.261Z,5.37
2018-05-09T12:58:38.382Z,5.60
2018-05-09T13:01:06.511Z,4.90
2018-05-09T13:03:34.662Z,6.03
2018-05-09T13:06:02.815Z,5.60
2018-05-09T13:08:30.944Z,5.50
2018-05-09T13:10:59.059Z,4.75
2018-05-09T13:13:27.209Z,4.43
2018-05-09T13:15:55.366Z,4.67
2018-05-09T13:18:23.527Z,4.73
2018-05-09T13:20:51.635Z,4.27
2018-05-09T13:23:19.790Z,4.75
2018-05-09T13:25:48.020Z,4.40
2018-05-09T13:28:16.171Z,4.37
2018-05-09T13:30:44.334Z,4.57
2018-05-09T13:33:12.508Z,4.07
2018-05-09T13:35:40.658Z,4.60
2018-05-09T13:38:08.834Z,4.97
2018-05-09T13:40:37.991Z,4.13
2018-05-09T13:43:06.212Z,5.00
2018-05-09T13:45:37.494Z,4.50
2018-05-09T13:48:05.638Z,4.70
2018-05-09T13:50:33.810Z,4.33
2018-05-09T13:53:02.131Z,3.90
2018-05-09T13:55:30.285Z,4.20
2018-05-09T13:57:58.409Z,4.03
2018-05-09T14:00:26.534Z,3.70
2018-05-09T14:02:54.697Z,4.17
2018-05-09T14:05:22.834Z,4.50
2018-05-09T14:07:50.958Z,4.20
2018-05-09T14:10:19.080Z,3.77
2018-05-09T14:12:47.207Z,4.20
2018-05-09T14:15:15.340Z,4.18
2018-05-09T14:17:43.483Z,4.00
2018-05-09T14:20:11.631Z,4.03
2018-05-09T14:22:39.757Z,4.00
2018-05-09T14:25:07.937Z,3.73
2018-05-09T14:27:36.344Z,4.03
2018-05-09T14:30:04.472Z,3.33
2018-05-09T14:32:32.648Z,4.17
2018-05-09T14:35:00.766Z,4.13
2018-05-09T14:37:28.910Z,3.17
2018-05-09T14:39:57.051Z,3.87
2018-05-09T14:42:25.187Z,4.10
2018-05-09T14:44:53.293Z,5.43
2018-05-09T14:47:21.417Z,4.90
2018-05-09T14:49:49.569Z,4.20
2018-05-09T14:52:18.236Z,4.77
2018-05-09T14:54:46.341Z,4.60
2018-05-09T14:57:14.472Z,4.50
2018-05-09T14:59:42.583Z,5.30
2018-05-09T15:02:10.731Z,5.00
2018-05-09T15:04:38.866Z,4.70
2018-05-09T15:07:07.093Z,4.60
2018-05-09T15:09:35.211Z,6.07
2018-05-09T15:12:03.354Z,5.30
2018-05-09T15:14:31.487Z,4.40
2018-05-09T15:16:59.632Z,5.60
2018-05-09T15:19:27.762Z,4.90
2018-05-09T15:21:55.919Z,5.20
2018-05-09T15:24:24.034Z,4.80
2018-05-09T15:26:52.210Z,5.40
2018-05-09T15:29:20.337Z,4.45
2018-05-09T15:31:48.619Z,4.50
2018-05-09T15:34:16.739Z,5.13
2018-05-09T15:36:44.861Z,4.23
2018-05-09T15:39:13.051Z,4.10
2018-05-09T15:41:41.157Z,4.47
2018-05-09T15:44:09.290Z,3.90
2018-05-09T15:46:37.430Z,5.40
2018-05-09T15:49:05.576Z,5.72
2018-05-09T15:51:33.717Z,4.50
2018-05-09T15:54:01.822Z,5.53
2018-05-09T15:56:29.967Z,5.40
2018-05-09T15:58:58.120Z,5.57
2018-05-09T16:01:26.258Z,5.77
2018-05-09T16:03:54.397Z,5.20
2018-05-09T16:06:22.526Z,5.13
2018-05-09T16:08:50.649Z,5.20
2018-05-09T16:11:18.786Z,6.03
2018-05-09T16:13:46.908Z,5.12
2018-05-09T16:16:15.041Z,4.43
2018-05-09T16:18:43.205Z,4.27
2018-05-09T16:21:11.335Z,4.17
2018-05-09T16:23:39.468Z,4.40
2018-05-09T16:26:07.599Z,4.60
2018-05-09T16:28:35.748Z,4.60
2018-05-09T16:31:03.854Z,4.13
2018-05-09T16:33:31.997Z,4.63
2018-05-09T16:36:00.119Z,5.28
2018-05-09T16:38:28.251Z,4.80
2018-05-09T16:40:56.369Z,5.63
2018-05-09T16:43:24.492Z,7.03
2018-05-09T16:45:52.634Z,6.50
2018-05-09T16:48:20.770Z,8.00
2018-05-09T16:50:48.894Z,8.43
2018-05-09T16:53:17.039Z,8.20
2018-05-09T16:55:45.184Z,8.53
2018-05-09T16:58:13.329Z,8.10
2018-05-09T17:00:41.442Z,8.53
2018-05-09T17:03:10.229Z,9.18
2018-05-09T17:05:38.386Z,8.90
2018-05-09T17:08:06.562Z,8.90
2018-05-09T17:10:34.701Z,9.50
2018-05-09T17:13:02.876Z,10.03
2018-05-09T17:15:31.085Z,9.63
2018-05-09T17:17:59.134Z,10.10
2018-05-09T17:20:27.264Z,9.23
2018-05-09T17:22:55.411Z,9.70
2018-05-09T17:25:23.538Z,10.07
2018-05-09T17:27:51.671Z,10.93
2018-05-09T17:30:19.868Z,11.90
2018-05-09T17:32:47.958Z,11.40
2018-05-09T17:35:16.102Z,10.90
2018-05-09T17:37:44.250Z,9.63
2018-05-09T17:40:12.382Z,11.47
2018-05-09T17:42:40.567Z,10.25
2018-05-09T17:45:08.700Z,11.57
2018-05-09T17:47:36.852Z,10.60
2018-05-09T17:50:04.982Z,10.60
2018-05-09T17:52:33.114Z,11.43
2018-05-09T17:55:01.250Z,9.63
2018-05-09T17:57:29.415Z,12.13
2018-05-09T17:59:57.530Z,10.70
2018-05-09T18:02:25.663Z,11.37
2018-05-09T18:04:53.785Z,11.70
2018-05-09T18:07:21.917Z,11.40
2018-05-09T18:09:50.068Z,12.00
2018-05-09T18:12:18.197Z,12.13
2018-05-09T18:14:46.366Z,11.70
2018-05-09T18:17:14.499Z,11.75
2018-05-09T18:19:42.627Z,10.82
2018-05-09T18:22:10.767Z,11.00
2018-05-09T18:24:41.912Z,12.30
2018-05-09T18:27:11.382Z,12.17
2018-05-09T18:29:39.510Z,10.23
2018-05-09T18:32:07.699Z,10.70
2018-05-09T18:34:35.837Z,11.37
2018-05-09T18:37:03.967Z,11.30
2018-05-09T18:39:32.131Z,12.00
2018-05-09T18:42:00.271Z,12.00
2018-05-09T18:44:28.389Z,12.40
2018-05-09T18:46:56.519Z,13.50
2018-05-09T18:49:24.645Z,13.10
2018-05-09T18:51:52.794Z,13.23
2018-05-09T18:54:20.978Z,13.17
2018-05-09T18:56:49.105Z,12.85
2018-05-09T18:59:17.237Z,12.70
2018-05-09T19:01:45.489Z,13.30
2018-05-09T19:04:13.623Z,12.40
2018-05-09T19:06:41.750Z,12.50
2018-05-09T19:09:09.888Z,13.00
2018-05-09T19:11:38.024Z,12.50
2018-05-09T19:14:06.137Z,12.07
2018-05-09T19:16:35.150Z,12.20
2018-05-09T19:19:03.330Z,12.37
2018-05-09T19:21:31.464Z,12.40
2018-05-09T19:23:59.605Z,12.93
2018-05-09T19:26:27.727Z,12.90
2018-05-09T19:28:55.851Z,12.37
2018-05-09T19:31:24.004Z,12.27
2018-05-09T19:33:52.148Z,12.43
2018-05-09T19:36:20.271Z,12.37
2018-05-09T19:38:48.405Z,12.90
2018-05-09T19:41:16.539Z,12.15
2018-05-09T19:43:44.664Z,12.77
2018-05-09T19:46:12.802Z,13.30
2018-05-09T19:48:40.941Z,11.67
2018-05-09T19:51:10.050Z,10.98
2018-05-09T19:53:38.200Z,11.67
2018-05-09T19:56:06.347Z,11.13
2018-05-09T19:58:34.491Z,11.13
2018-05-09T20:01:02.631Z,12.00
2018-05-09T20:03:30.756Z,13.77
2018-05-09T20:05:58.885Z,12.87
2018-05-09T20:08:27.071Z,12.33
2018-05-09T20:10:55.160Z,11.40
2018-05-09T20:13:23.286Z,11.45
2018-05-09T20:15:51.419Z,12.43
2018-05-09T20:18:19.564Z,12.07
2018-05-09T20:20:47.691Z,12.03
2018-05-09T20:23:15.829Z,11.75
2018-05-09T20:25:43.958Z,12.40
2018-05-09T20:28:12.116Z,13.68
2018-05-09T20:30:45.895Z,13.40
2018-05-09T20:33:14.035Z,12.57
2018-05-09T20:35:42.167Z,13.47
2018-05-09T20:38:10.290Z,13.93
2018-05-09T20:40:38.430Z,12.97
2018-05-09T20:43:07.848Z,13.80
2018-05-09T20:45:36.001Z,14.33
2018-05-09T20:48:04.137Z,13.20
2018-05-09T20:50:32.287Z,13.63
2018-05-09T20:53:00.471Z,13.37
2018-05-09T20:55:29.315Z,13.27
2018-05-09T20:57:57.450Z,13.57
2018-05-09T21:00:25.594Z,14.67
2018-05-09T21:02:53.746Z,14.83
2018-05-09T21:05:21.860Z,15.23
2018-05-09T21:07:56.731Z,14.57
2018-05-09T21:10:24.864Z,14.33
2018-05-09T21:12:52.992Z,15.07
2018-05-09T21:15:21.135Z,14.10
2018-05-09T21:17:49.266Z,14.30
2018-05-09T21:20:17.394Z,14.90
2018-05-09T21:22:45.535Z,15.30
2018-05-09T21:25:13.675Z,15.87
2018-05-09T21:27:41.879Z,13.33
2018-05-09T21:30:09.973Z,14.00
2018-05-09T21:32:38.113Z,15.67
2018-05-09T21:35:06.287Z,15.83
2018-05-09T21:37:34.400Z,14.33
2018-05-09T21:40:02.556Z,15.33
2018-05-09T21:42:30.716Z,15.23
2018-05-09T21:44:58.840Z,16.07
2018-05-09T21:47:26.975Z,15.20
2018-05-09T21:49:55.107Z,16.20
2018-05-09T21:52:23.240Z,16.43
2018-05-09T21:54:51.361Z,16.30
2018-05-09T21:57:19.501Z,15.45
2018-05-09T21:59:47.636Z,16.87
2018-05-09T22:02:15.773Z,15.70
2018-05-09T22:04:43.898Z,15.90
2018-05-09T22:07:12.053Z,16.40
2018-05-09T22:09:40.188Z,15.40
2018-05-09T22:12:08.316Z,15.20
2018-05-09T22:14:36.459Z,16.97
2018-05-09T22:17:04.587Z,15.30
2018-05-09T22:19:32.729Z,16.53
2018-05-09T22:22:00.863Z,16.80
2018-05-09T22:24:28.991Z,16.70
2018-05-09T22:26:57.125Z,15.80
2018-05-09T22:29:25.267Z,15.77
2018-05-09T22:31:53.385Z,17.13
2018-05-09T22:34:21.526Z,17.30
2018-05-09T22:36:50.480Z,17.47
2018-05-09T22:39:18.633Z,16.27
2018-05-09T22:41:46.759Z,17.07
2018-05-09T22:44:14.887Z,16.30
2018-05-09T22:46:43.024Z,17.17
2018-05-09T22:49:11.153Z,18.63
2018-05-09T22:51:39.287Z,17.47
2018-05-09T22:54:07.418Z,18.17
2018-05-09T22:56:35.555Z,17.50
2018-05-09T22:59:03.712Z,17.67
2018-05-09T23:01:31.859Z,19.50
2018-05-09T23:03:59.974Z,18.97
2018-05-09T23:06:28.794Z,19.70
2018-05-09T23:08:56.905Z,18.77
2018-05-09T23:11:25.034Z,18.07
2018-05-09T23:13:53.317Z,19.20
2018-05-09T23:16:21.436Z,20.73
2018-05-09T23:18:49.564Z,20.20
2018-05-09T23:21:17.712Z,20.90
2018-05-09T23:23:45.897Z,21.53
2018-05-09T23:26:13.990Z,19.43
2018-05-09T23:28:42.168Z,20.33
2018-05-09T23:31:10.755Z,22.23
2018-05-09T23:33:38.880Z,20.97
2018-05-09T23:36:07.026Z,19.20
2018-05-09T23:38:35.162Z,21.20
2018-05-09T23:41:03.269Z,21.23
2018-05-09T23:43:31.450Z,21.27
2018-05-09T23:45:59.574Z,19.83
2018-05-09T23:48:27.710Z,20.50
2018-05-09T23:50:55.852Z,20.63
2018-05-09T23:53:24.009Z,19.85
2018-05-09T23:55:52.162Z,20.03
2018-05-09T23:58:20.295Z,20.47
